Arauca, Arauca Santiago Perez Quiroz Airport (SKUC)

NameArauca Santiago Perez Quiroz Airport
CityArauca
CountryColombia
ICAOSKUC
IATAAUC
Altitude129 m
CoordinatesGoogle Map
Live Air TrafficLiveATC.net
METARSKUC 182300Z 00000KT 9999 BKN20 32/19 A2976
2019-03-18 23:00:00 Wind: North (0°) 0 m/s - Visibility: > 10000 m - Temperature: 32 °C - Dew point: 19 °C - Humidity: 46.1% - Pressure: 1007.79 hPa

Sorry, no flights used the airport in this database.